createdAt,value
2024-02-24T00:01:42.486Z,100599.55
2024-02-24T00:04:14.833Z,100590.91
2024-02-24T00:06:48.668Z,100596.97
2024-02-24T00:09:21.599Z,100611.57
2024-02-24T00:11:54.776Z,100602.15
2024-02-24T00:14:28.057Z,100599.56
2024-02-24T00:17:00.718Z,100598.70
2024-02-24T00:19:33.461Z,100590.93
2024-02-24T00:22:06.116Z,100588.38
2024-02-24T00:24:38.850Z,100595.29
2024-02-24T00:27:11.742Z,100593.57
2024-02-24T00:29:44.954Z,100598.77
2024-02-24T00:32:18.205Z,100595.27
2024-02-24T00:34:50.727Z,100594.45
2024-02-24T00:37:23.264Z,100588.45
2024-02-24T00:39:56.795Z,100608.25
2024-02-24T00:42:29.350Z,100596.23
2024-02-24T00:45:01.745Z,100595.37
2024-02-24T00:47:34.446Z,100597.96
2024-02-24T00:50:07.195Z,100587.65
2024-02-24T00:52:39.676Z,100595.43
2024-02-24T00:55:12.273Z,100594.59
2024-02-24T00:57:44.354Z,100596.31
2024-02-24T01:00:17.344Z,100601.50
2024-02-24T01:02:49.928Z,100596.31
2024-02-24T01:05:22.292Z,100600.66
2024-02-24T01:07:56.350Z,100609.27
2024-02-24T01:10:29.051Z,100608.42
2024-02-24T01:13:02.389Z,100609.27
2024-02-24T01:15:35.568Z,100605.83
2024-02-24T01:18:07.923Z,100609.26
2024-02-24T01:20:40.346Z,100604.96
2024-02-24T01:23:12.600Z,100609.27
2024-02-24T01:25:47.071Z,100614.44
2024-02-24T01:28:19.913Z,100623.08
2024-02-24T01:30:52.532Z,100629.96
2024-02-24T01:33:25.051Z,100623.91
2024-02-24T01:35:57.815Z,100629.13
2024-02-24T01:38:30.286Z,100628.26
2024-02-24T01:41:02.800Z,100628.25
2024-02-24T01:43:36.707Z,100631.68
2024-02-24T01:46:12.084Z,100640.20
2024-02-24T01:48:45.087Z,100635.97
2024-02-24T01:51:18.333Z,100635.97
2024-02-24T01:53:51.190Z,100635.96
2024-02-24T01:56:26.995Z,100641.14
2024-02-24T01:58:59.236Z,100633.38
2024-02-24T02:01:31.986Z,100629.08
2024-02-24T02:04:04.979Z,100623.02
2024-02-24T02:06:38.429Z,100630.79
2024-02-24T02:09:10.722Z,100631.62
2024-02-24T02:11:51.725Z,100632.50
2024-02-24T02:14:17.617Z,100620.42
2024-02-24T02:16:50.771Z,100630.73
2024-02-24T02:19:23.897Z,100625.54
2024-02-24T02:21:59.510Z,100635.03
2024-02-24T02:24:32.351Z,100644.51
2024-02-24T02:27:06.972Z,100631.56
2024-02-24T02:29:40.423Z,100635.85
2024-02-24T02:32:12.896Z,100639.32
2024-02-24T02:34:45.112Z,100627.26
2024-02-24T02:37:17.399Z,100639.36
2024-02-24T02:39:50.393Z,100644.51
2024-02-24T02:42:23.020Z,100656.61
2024-02-24T02:44:55.436Z,100652.27
2024-02-24T02:47:28.203Z,100657.45
2024-02-24T02:50:01.774Z,100657.45
2024-02-24T02:52:34.250Z,100654.86
2024-02-24T02:55:07.152Z,100663.50
2024-02-24T02:57:39.840Z,100657.45
2024-02-24T03:00:13.054Z,100649.68
2024-02-24T03:02:46.014Z,100654.85
2024-02-24T03:05:18.783Z,100658.32
2024-02-24T03:07:50.941Z,100663.45
2024-02-24T03:10:23.313Z,100670.39
2024-02-24T03:12:55.836Z,100667.80
2024-02-24T03:15:28.639Z,100666.05
2024-02-24T03:18:01.316Z,100660.91
2024-02-24T03:20:34.182Z,100663.50
2024-02-24T03:23:07.876Z,100663.45
2024-02-24T03:25:40.920Z,100666.05
2024-02-24T03:28:13.552Z,100669.52
2024-02-24T03:30:46.381Z,100662.62
2024-02-24T03:33:19.532Z,100663.46
2024-02-24T03:35:52.285Z,100665.22
2024-02-24T03:38:24.998Z,100676.41
2024-02-24T03:40:57.160Z,100688.52
2024-02-24T03:43:29.480Z,100676.41
2024-02-24T03:46:02.463Z,100689.36
2024-02-24T03:48:35.588Z,100691.11
2024-02-24T03:51:07.840Z,100697.13
2024-02-24T03:53:40.086Z,100695.41
2024-02-24T03:56:12.699Z,100685.05
2024-02-24T03:58:45.696Z,100689.34
2024-02-24T04:01:18.504Z,100688.52
2024-02-24T04:03:52.833Z,100691.11
2024-02-24T04:06:25.582Z,100699.72
2024-02-24T04:08:57.834Z,100699.72
2024-02-24T04:11:30.528Z,100702.31
2024-02-24T04:14:03.103Z,100696.25
2024-02-24T04:16:35.657Z,100702.31
2024-02-24T04:19:08.361Z,100710.95
2024-02-24T04:21:41.501Z,100707.48
2024-02-24T04:24:14.295Z,100706.61
2024-02-24T04:26:46.834Z,100707.48
2024-02-24T04:29:19.091Z,100707.49
2024-02-24T04:31:52.005Z,100715.26
2024-02-24T04:34:25.121Z,100710.12
2024-02-24T04:36:57.605Z,100718.77
2024-02-24T04:39:30.496Z,100714.44
2024-02-24T04:42:04.482Z,100716.14
2024-02-24T04:44:37.580Z,100711.84
2024-02-24T04:47:09.948Z,100710.96
2024-02-24T04:49:43.009Z,100714.43
2024-02-24T04:52:16.112Z,100697.19
2024-02-24T04:54:48.498Z,100679.92
2024-02-24T04:57:20.896Z,100682.47
2024-02-24T04:59:53.747Z,100686.77
2024-02-24T05:02:26.361Z,100685.05
2024-02-24T05:04:59.083Z,100695.41
2024-02-24T05:07:32.862Z,100691.94
2024-02-24T05:10:22.838Z,100690.18
2024-02-24T05:12:56.493Z,100690.17
2024-02-24T05:15:28.900Z,100700.53
2024-02-24T05:18:01.353Z,100717.78
2024-02-24T05:20:34.676Z,100712.60
2024-02-24T05:23:08.494Z,100730.69
2024-02-24T05:25:41.493Z,100726.39
2024-02-24T05:28:14.205Z,100719.45
2024-02-24T05:30:48.923Z,100710.78
2024-02-24T05:33:22.755Z,100707.30
2024-02-24T05:35:56.150Z,100706.41
2024-02-24T05:38:29.907Z,100709.88
2024-02-24T05:41:03.408Z,100715.89
2024-02-24T05:43:37.384Z,100712.46
2024-02-24T05:46:10.746Z,100714.19
2024-02-24T05:49:01.116Z,100732.33
2024-02-24T05:51:34.062Z,100729.73
2024-02-24T05:54:07.438Z,100734.08
2024-02-24T05:56:41.852Z,100738.37
2024-02-24T05:59:15.802Z,100737.50
2024-02-24T06:01:48.709Z,100724.54
2024-02-24T06:04:21.261Z,100727.07
2024-02-24T06:06:53.677Z,100746.92
2024-02-24T06:09:26.955Z,100744.38
2024-02-24T06:11:59.682Z,100758.17
2024-02-24T06:14:32.869Z,100753.81
2024-02-24T06:17:05.283Z,100747.78
2024-02-24T06:19:39.452Z,100746.85
2024-02-24T06:22:12.641Z,100741.70
2024-02-24T06:24:45.631Z,100755.50
2024-02-24T06:27:18.263Z,100746.01
2024-02-24T06:29:51.090Z,100736.48
2024-02-24T06:32:24.067Z,100733.05
2024-02-24T06:34:57.023Z,100738.22
2024-02-24T06:37:29.416Z,100740.82
2024-02-24T06:40:02.343Z,100737.33
2024-02-24T06:42:34.782Z,100741.63
2024-02-24T06:45:08.620Z,100744.16
2024-02-24T06:47:41.672Z,100751.03
2024-02-24T06:50:14.314Z,100756.16
2024-02-24T06:52:47.344Z,100755.25
2024-02-24T06:55:20.480Z,100756.95
2024-02-24T06:57:53.458Z,100756.96
2024-02-24T07:00:26.890Z,100758.70
2024-02-24T07:03:00.344Z,100757.77
2024-02-24T07:05:33.770Z,100757.76
2024-02-24T07:08:07.273Z,100760.34
2024-02-24T07:10:40.534Z,100757.74
2024-02-24T07:13:12.971Z,100767.23
2024-02-24T07:15:45.528Z,100763.73
2024-02-24T07:18:18.685Z,100766.33
2024-02-24T07:20:52.388Z,100774.05
2024-02-24T07:23:25.251Z,100774.09
2024-02-24T07:25:59.163Z,100775.80
2024-02-24T07:28:32.656Z,100772.31
2024-02-24T07:31:06.419Z,100772.32
2024-02-24T07:33:39.759Z,100766.20
2024-02-24T07:36:13.648Z,100774.80
2024-02-24T07:38:46.607Z,100768.71
2024-02-24T07:41:20.106Z,100770.39
2024-02-24T07:43:53.732Z,100773.82
2024-02-24T07:46:31.514Z,100772.92
2024-02-24T07:49:05.252Z,100771.22
2024-02-24T07:51:40.705Z,100772.03
2024-02-24T07:54:14.328Z,100761.70
2024-02-24T07:56:47.184Z,100760.81
2024-02-24T07:59:19.731Z,100757.34
2024-02-24T08:01:53.161Z,100760.73
2024-02-24T08:04:25.684Z,100764.22
2024-02-24T08:06:58.082Z,100757.28
2024-02-24T08:09:31.651Z,100770.27
2024-02-24T08:12:04.643Z,100775.45
2024-02-24T08:14:40.150Z,100770.27
2024-02-24T08:17:13.635Z,100762.47
2024-02-24T08:19:46.782Z,100762.48
2024-02-24T08:22:19.707Z,100763.32
2024-02-24T08:25:10.995Z,100776.30
2024-02-24T08:27:43.462Z,100770.22
2024-02-24T08:30:16.971Z,100774.56
2024-02-24T08:32:51.315Z,100765.89
2024-02-24T08:35:25.141Z,100773.61
2024-02-24T08:37:57.611Z,100775.29
2024-02-24T08:40:30.158Z,100771.88
2024-02-24T08:43:02.795Z,100776.19
2024-02-24T08:45:35.619Z,100778.88
2024-02-24T08:48:09.366Z,100771.10
2024-02-24T08:50:44.046Z,100788.40
2024-02-24T08:53:17.517Z,100782.34
2024-02-24T08:55:50.994Z,100783.96
2024-02-24T08:58:23.436Z,100776.17
2024-02-24T09:00:57.810Z,100789.98
2024-02-24T09:03:30.553Z,100779.55
2024-02-24T09:06:03.470Z,100772.55
2024-02-24T09:08:36.473Z,100782.84
2024-02-24T09:11:09.848Z,100778.47
2024-02-24T09:13:44.570Z,100785.36
2024-02-24T09:16:19.143Z,100786.95
2024-02-24T09:18:54.915Z,100791.97
2024-02-24T09:21:30.098Z,100783.24
2024-02-24T09:24:04.590Z,100787.59
2024-02-24T09:26:38.443Z,100785.92
2024-02-24T09:29:12.412Z,100780.70
2024-02-24T09:31:45.811Z,100782.37
2024-02-24T09:34:20.839Z,100794.45
2024-02-24T09:36:55.526Z,100799.55
2024-02-24T09:39:28.596Z,100797.81
2024-02-24T09:42:02.425Z,100803.00
2024-02-24T09:44:35.087Z,100796.94
2024-02-24T09:47:10.698Z,100803.02
2024-02-24T09:49:44.655Z,100797.78
2024-02-24T09:52:18.487Z,100796.00
2024-02-24T09:54:50.959Z,100794.13
2024-02-24T09:57:27.421Z,100793.11
2024-02-24T10:00:01.493Z,100786.15
2024-02-24T10:02:36.177Z,100786.97
2024-02-24T10:05:09.955Z,100788.82
2024-02-24T10:07:43.430Z,100791.44
2024-02-24T10:10:18.164Z,100797.52
2024-02-24T10:13:04.038Z,100791.50
2024-02-24T10:15:38.274Z,100785.40
2024-02-24T10:18:09.941Z,100793.98
2024-02-24T10:20:42.752Z,100787.66
2024-02-24T10:23:15.524Z,100800.91
2024-02-24T10:25:49.757Z,100795.72
2024-02-24T10:28:22.433Z,100796.71
2024-02-24T10:30:56.205Z,100791.52
2024-02-24T10:33:33.313Z,100797.56
2024-02-24T10:36:06.854Z,100802.81
2024-02-24T10:38:48.083Z,100802.85
2024-02-24T10:41:18.842Z,100796.81
2024-02-24T10:44:01.754Z,100796.00
2024-02-24T10:46:29.260Z,100803.79
2024-02-24T10:49:04.881Z,100797.81
2024-02-24T10:51:38.461Z,100799.49
2024-02-24T10:54:16.601Z,100801.80
2024-02-24T10:56:52.418Z,100798.48
2024-02-24T10:59:30.217Z,100800.25
2024-02-24T11:02:05.438Z,100802.85
2024-02-24T11:04:44.040Z,100796.80
2024-02-24T11:07:22.181Z,100795.94
2024-02-24T11:09:56.739Z,100807.15
2024-02-24T11:12:32.441Z,100801.14
2024-02-24T11:15:07.246Z,100803.67
2024-02-24T11:17:53.457Z,100808.80
2024-02-24T11:20:45.180Z,100803.58
2024-02-24T11:23:26.130Z,100819.19
2024-02-24T11:26:21.495Z,100805.25
2024-02-24T11:29:03.842Z,100812.08
2024-02-24T11:31:38.536Z,100814.61
2024-02-24T11:34:12.857Z,100818.04
2024-02-24T11:36:45.785Z,100822.45
2024-02-24T11:39:20.049Z,100818.80
2024-02-24T11:41:57.011Z,100819.91
2024-02-24T11:44:29.647Z,100825.11
2024-02-24T11:47:04.168Z,100818.33
2024-02-24T11:49:40.274Z,100816.62
2024-02-24T11:52:12.714Z,100817.52
2024-02-24T11:54:51.357Z,100823.66
2024-02-24T11:57:25.204Z,100828.93
2024-02-24T11:59:57.885Z,100830.73
2024-02-24T12:02:30.379Z,100828.26
2024-02-24T12:05:18.035Z,100830.91
2024-02-24T12:07:51.065Z,100828.39
2024-02-24T12:10:25.334Z,100832.78
2024-02-24T12:12:57.943Z,100826.73
2024-02-24T12:15:30.870Z,100811.22
2024-02-24T12:18:04.091Z,100820.77
2024-02-24T12:20:50.747Z,100820.84
2024-02-24T12:23:25.314Z,100821.69
2024-02-24T12:25:58.782Z,100827.78
2024-02-24T12:28:32.523Z,100818.31
2024-02-24T12:31:07.249Z,100816.61
2024-02-24T12:33:44.250Z,100818.41
2024-02-24T12:36:18.304Z,100819.29
2024-02-24T12:38:52.638Z,100809.72
2024-02-24T12:41:28.693Z,100805.38
2024-02-24T12:44:04.354Z,100803.61
2024-02-24T12:46:37.995Z,100805.27
2024-02-24T12:49:10.900Z,100808.75
2024-02-24T12:51:45.657Z,100801.80
2024-02-24T12:54:17.525Z,100813.96
2024-02-24T12:56:51.197Z,100812.03
2024-02-24T12:59:24.930Z,100814.77
2024-02-24T13:02:00.221Z,100812.17
2024-02-24T13:04:33.308Z,100790.59
2024-02-24T13:07:06.282Z,100798.29
2024-02-24T13:09:38.943Z,100797.45
2024-02-24T13:12:11.984Z,100804.33
2024-02-24T13:14:44.611Z,100796.55
2024-02-24T13:17:18.409Z,100794.84
2024-02-24T13:19:53.080Z,100793.09
2024-02-24T13:22:26.168Z,100799.16
2024-02-24T13:24:58.591Z,100798.28
2024-02-24T13:27:31.214Z,100801.77
2024-02-24T13:30:04.938Z,100796.55
2024-02-24T13:32:38.138Z,100796.59
2024-02-24T13:35:11.671Z,100801.75
2024-02-24T13:37:44.255Z,100806.98
2024-02-24T13:40:17.573Z,100794.89
2024-02-24T13:42:50.776Z,100793.20
2024-02-24T13:45:23.749Z,100802.72
2024-02-24T13:47:57.694Z,100799.30
2024-02-24T13:50:31.074Z,100790.58
2024-02-24T13:53:04.905Z,100799.40
2024-02-24T13:55:38.043Z,100795.11
2024-02-24T13:58:11.081Z,100803.73
2024-02-24T14:00:44.888Z,100792.48
2024-02-24T14:03:17.739Z,100799.41
2024-02-24T14:05:50.553Z,100806.39
2024-02-24T14:08:23.306Z,100802.92
2024-02-24T14:10:56.451Z,100805.55
2024-02-24T14:13:31.887Z,100796.06
2024-02-24T14:16:05.947Z,100804.71
2024-02-24T14:18:39.975Z,100798.67
2024-02-24T14:21:13.726Z,100793.52
2024-02-24T14:23:46.024Z,100801.31
2024-02-24T14:26:19.118Z,100812.39
2024-02-24T14:29:00.416Z,100803.05
2024-02-24T14:31:28.270Z,100815.22
2024-02-24T14:34:02.016Z,100802.27
2024-02-24T14:36:35.325Z,100808.34
2024-02-24T14:39:09.366Z,100804.93
2024-02-24T14:41:43.185Z,100816.16
2024-02-24T14:44:17.750Z,100807.45
2024-02-24T14:46:58.543Z,100800.59
2024-02-24T14:49:32.033Z,100807.56
2024-02-24T14:52:06.871Z,100808.31
2024-02-24T14:54:42.377Z,100804.95
2024-02-24T14:57:13.844Z,100800.65
2024-02-24T14:59:46.856Z,100804.09
2024-02-24T15:02:29.887Z,100806.69
2024-02-24T15:04:54.358Z,100807.63
2024-02-24T15:07:27.260Z,100807.64
2024-02-24T15:10:02.789Z,100804.15
2024-02-24T15:12:35.995Z,100793.77
2024-02-24T15:15:10.287Z,100802.39
2024-02-24T15:17:42.839Z,100802.45
2024-02-24T15:20:16.361Z,100802.48
2024-02-24T15:22:49.816Z,100809.38
2024-02-24T15:25:22.644Z,100809.38
2024-02-24T15:27:56.841Z,100817.17
2024-02-24T15:30:29.151Z,100817.17
2024-02-24T15:33:04.607Z,100830.16
2024-02-24T15:35:37.354Z,100825.84
2024-02-24T15:38:10.455Z,100844.02
2024-02-24T15:43:34.252Z,100857.02
2024-02-24T15:46:11.419Z,100861.38
2024-02-24T15:48:45.047Z,100861.39
2024-02-24T15:51:18.709Z,100865.75
2024-02-24T15:53:51.610Z,100870.97
2024-02-24T15:56:25.116Z,100862.34
2024-02-24T15:58:58.384Z,100874.44
2024-02-24T16:01:31.304Z,100876.17
2024-02-24T16:04:03.935Z,100873.56
2024-02-24T16:06:36.294Z,100875.34
2024-02-24T16:09:10.939Z,100872.75
2024-02-24T16:11:44.155Z,100879.70
2024-02-24T16:14:16.738Z,100871.05
2024-02-24T16:16:48.981Z,100866.73
2024-02-24T16:19:21.521Z,100865.84
2024-02-24T16:21:54.097Z,100869.32
2024-02-24T16:24:29.382Z,100858.09
2024-02-24T16:27:01.680Z,100857.25
2024-02-24T16:29:34.225Z,100856.38
2024-02-24T16:32:09.687Z,100851.19
2024-02-24T16:34:41.836Z,100864.16
2024-02-24T16:37:14.146Z,100861.61
2024-02-24T16:39:47.096Z,100845.98
2024-02-24T16:42:20.145Z,100857.25
2024-02-24T16:44:53.501Z,100851.25
2024-02-24T16:47:27.882Z,100853.78
2024-02-24T16:50:02.464Z,100853.78
2024-02-24T16:52:35.453Z,100846.93
2024-02-24T16:55:11.382Z,100839.16
2024-02-24T16:57:44.107Z,100839.98
2024-02-24T17:00:18.646Z,100840.00
2024-02-24T17:02:51.851Z,100833.14
2024-02-24T17:05:25.652Z,100843.47
2024-02-24T17:08:00.122Z,100846.05
2024-02-24T17:10:34.664Z,100846.06
2024-02-24T17:13:11.881Z,100849.55
2024-02-24T17:15:44.837Z,100853.84
2024-02-24T17:18:23.909Z,100846.05
2024-02-24T17:20:53.963Z,100846.05
2024-02-24T17:23:27.004Z,100839.98
2024-02-24T17:26:00.187Z,100846.88
2024-02-24T17:28:53.285Z,100842.56
2024-02-24T17:31:25.762Z,100840.80
2024-02-24T17:33:58.043Z,100843.32
2024-02-24T17:36:32.398Z,100852.87
2024-02-24T17:39:05.235Z,100842.48
2024-02-24T17:41:38.167Z,100839.00
2024-02-24T17:44:12.394Z,100842.48
2024-02-24T17:46:45.241Z,100840.71
2024-02-24T17:49:18.530Z,100838.98
2024-02-24T17:51:51.138Z,100841.53
2024-02-24T17:54:24.855Z,100832.85
2024-02-24T17:56:57.990Z,100827.70
2024-02-24T17:59:31.015Z,100820.76
2024-02-24T18:02:04.933Z,100820.82
2024-02-24T18:04:40.169Z,100812.16
2024-02-24T18:07:13.469Z,100815.64
2024-02-24T18:09:47.879Z,100820.02
2024-02-24T18:15:10.805Z,100807.05
2024-02-24T18:17:43.916Z,100795.78
2024-02-24T18:20:17.202Z,100804.45
2024-02-24T18:22:49.475Z,100798.38
2024-02-24T18:25:21.866Z,100804.44
2024-02-24T18:27:54.177Z,100799.27
2024-02-24T18:30:26.738Z,100808.76
2024-02-24T18:32:59.320Z,100807.87
2024-02-24T18:35:31.488Z,100808.69
2024-02-24T18:38:04.056Z,100813.02
2024-02-24T18:40:36.647Z,100810.37
2024-02-24T18:43:09.397Z,100809.53
2024-02-24T18:45:44.469Z,100816.37
2024-02-24T18:48:17.622Z,100812.07
2024-02-24T18:50:49.970Z,100808.59
2024-02-24T18:53:22.656Z,100807.73
2024-02-24T18:55:55.563Z,100802.55
2024-02-24T18:58:31.841Z,100799.05
2024-02-24T19:01:04.859Z,100797.31
2024-02-24T19:03:38.761Z,100795.56
2024-02-24T19:06:12.768Z,100800.78
2024-02-24T19:08:46.444Z,100794.67
2024-02-24T19:11:19.178Z,100799.85
2024-02-24T19:13:51.511Z,100804.94
2024-02-24T19:16:23.952Z,100802.45
2024-02-24T19:18:56.766Z,100801.59
2024-02-24T19:21:29.724Z,100808.55
2024-02-24T19:24:02.096Z,100797.29
2024-02-24T19:26:35.219Z,100799.89
2024-02-24T19:29:15.535Z,100794.69
2024-02-24T19:31:48.034Z,100795.55
2024-02-24T19:34:21.097Z,100795.50
2024-02-24T19:36:53.590Z,100803.28
2024-02-24T19:39:26.492Z,100809.35
2024-02-24T19:42:00.076Z,100796.36
2024-02-24T19:44:32.915Z,100807.58
2024-02-24T19:47:07.210Z,100792.84
2024-02-24T19:49:38.989Z,100801.49
2024-02-24T19:52:11.089Z,100805.67
2024-02-24T19:54:48.206Z,100799.76
2024-02-24T19:57:21.906Z,100789.37
2024-02-24T19:59:55.039Z,100802.36
2024-02-24T20:02:28.549Z,100807.55
2024-02-24T20:05:00.203Z,100793.71
2024-02-24T20:07:32.337Z,100804.95
2024-02-24T20:10:04.179Z,100809.27
2024-02-24T20:12:36.328Z,100802.34
2024-02-24T20:15:08.441Z,100798.86
2024-02-24T20:17:40.261Z,100793.64
2024-02-24T20:20:12.772Z,100799.67
2024-02-24T20:22:44.224Z,100783.17
2024-02-24T20:25:16.263Z,100784.05
2024-02-24T20:27:47.945Z,100784.00
2024-02-24T20:30:22.748Z,100783.96
2024-02-24T20:32:54.607Z,100795.16
2024-02-24T20:35:27.935Z,100798.63
2024-02-24T20:37:59.778Z,100802.93
2024-02-24T20:40:31.437Z,100798.59
2024-02-24T20:43:03.113Z,100791.62
2024-02-24T20:45:34.669Z,100803.73
2024-02-24T20:48:06.873Z,100785.55
2024-02-24T20:50:39.053Z,100789.91
2024-02-24T20:53:11.018Z,100802.02
2024-02-24T20:55:42.800Z,100792.48
2024-02-24T20:58:14.706Z,100812.38
2024-02-24T21:00:47.134Z,100813.17
2024-02-24T21:03:19.399Z,100806.22
2024-02-24T21:05:50.980Z,100812.31
2024-02-24T21:08:22.825Z,100814.92
2024-02-24T21:10:54.478Z,100810.62
2024-02-24T21:13:26.181Z,100820.19
2024-02-24T21:15:57.974Z,100817.59
2024-02-24T21:18:30.175Z,100804.62
2024-02-24T21:21:02.022Z,100807.20
2024-02-24T21:23:35.028Z,100811.52
2024-02-24T21:26:10.353Z,100815.88
2024-02-24T21:28:42.000Z,100811.53
2024-02-24T21:31:13.523Z,100814.11
2024-02-24T21:33:45.881Z,100820.09
2024-02-24T21:36:19.090Z,100808.89
2024-02-24T21:38:51.253Z,100816.68
2024-02-24T21:41:23.055Z,100816.69
2024-02-24T21:43:55.087Z,100821.02
2024-02-24T21:46:27.688Z,100808.03
2024-02-24T21:48:59.371Z,100813.27
2024-02-24T21:51:30.871Z,100815.88
2024-02-24T21:54:04.400Z,100812.41
2024-02-24T21:56:36.232Z,100816.73
2024-02-24T21:59:07.950Z,100824.52
2024-02-24T22:01:39.410Z,100822.78
2024-02-24T22:04:13.357Z,100830.58
2024-02-24T22:06:46.195Z,100831.40
2024-02-24T22:09:19.032Z,100824.48
2024-02-24T22:11:51.917Z,100822.73
2024-02-24T22:14:24.536Z,100818.39
2024-02-24T22:16:57.319Z,100827.97
2024-02-24T22:19:31.480Z,100827.13
2024-02-24T22:22:03.798Z,100824.59
2024-02-24T22:24:37.027Z,100827.23
2024-02-24T22:27:09.816Z,100835.95
2024-02-24T22:29:43.485Z,100829.05
2024-02-24T22:32:16.254Z,100827.41
2024-02-24T22:34:48.759Z,100827.43
2024-02-24T22:37:21.689Z,100830.05
2024-02-24T22:39:54.273Z,100833.59
2024-02-24T22:42:27.470Z,100837.92
2024-02-24T22:45:00.265Z,100832.73
2024-02-24T22:47:35.067Z,100836.24
2024-02-24T22:50:08.289Z,100834.53
2024-02-24T22:52:40.628Z,100849.27
2024-02-24T22:55:13.874Z,100832.84
2024-02-24T22:57:47.630Z,100833.73
2024-02-24T23:00:22.275Z,100830.25
2024-02-24T23:02:54.892Z,100835.52
2024-02-24T23:05:27.940Z,100834.70
2024-02-24T23:08:00.143Z,100845.97
2024-02-24T23:10:32.801Z,100829.58
2024-02-24T23:13:05.176Z,100836.50
2024-02-24T23:15:37.656Z,100839.09
2024-02-24T23:18:10.219Z,100843.46
2024-02-24T23:20:42.846Z,100840.03
2024-02-24T23:23:17.253Z,100833.98
2024-02-24T23:25:50.318Z,100831.39
2024-02-24T23:28:23.107Z,100850.44
2024-02-24T23:30:56.228Z,100826.28
2024-02-24T23:33:28.863Z,100838.41
2024-02-24T23:36:01.549Z,100828.05
2024-02-24T23:38:34.133Z,100839.30
2024-02-24T23:41:07.307Z,100833.30
2024-02-24T23:43:40.646Z,100835.94
2024-02-24T23:46:14.526Z,100825.58
2024-02-24T23:48:48.127Z,100826.45
2024-02-24T23:51:20.373Z,100840.30
2024-02-24T23:53:53.115Z,100832.54
2024-02-24T23:56:26.267Z,100834.30
2024-02-24T23:58:59.061Z,100836.88
